Data for 03/27/2009

Time Sea-Level Adjusted Pressure Absolute Pressure Temperature Relative Humidity Dew Point   
(mb) (inHg) (mb) (inHg) (C) (F) (%) (C) (F)
00:05 1021 30.15 851 25.13 -11.2 11.8 77 -14.5 5.9
00:10 1021 30.15 851 25.13 -11.1 12 77 -14.4 6.1
00:15 1021 30.15 851 25.13 -11.1 11.9 77 -14.4 6
00:20 1021 30.15 851 25.13 -11.1 12 76 -14.5 5.9
00:25 1021 30.15 851 25.13 -11.1 12 76 -14.5 6
00:30 1021 30.15 850 25.1 -11.1 12 77 -14.4 6.1
00:35 1021 30.15 850 25.1 -11.3 11.7 78 -14.4 6
00:40 1021 30.15 850 25.1 -11.3 11.6 78 -14.5 5.9
00:45 1021 30.15 850 25.1 -11.4 11.5 78 -14.5 5.9
00:50 1021 30.15 850 25.1 -11.2 11.8 77 -14.5 6
00:55 1021 30.15 850 25.1 -11.1 12 77 -14.4 6.1
01:00 1021 30.15 850 25.1 -11.3 11.8 77 -14.5 6
01:05 1021 30.15 850 25.1 -11.3 11.6 77 -14.5 5.9
01:10 1021 30.15 850 25.1 -11.3 11.7 77 -14.5 5.8
01:15 1021 30.15 850 25.1 -11.2 11.8 77 -14.5 5.9
01:20 1021 30.15 850 25.1 -11.3 11.8 77 -14.6 5.8
01:25 1021 30.15 850 25.1 -11.3 11.8 77 -14.5 5.9
01:30 1021 30.15 850 25.1 -11.3 11.7 77 -14.5 5.9
01:35 1020 30.12 850 25.1 -11.5 11.3 78 -14.6 5.8
01:40 1020 30.12 850 25.1 -11.6 11.1 78 -14.7 5.6
01:45 1020 30.12 850 25.1 -11.6 11.1 78 -14.7 5.6
01:50 1020 30.12 850 25.1 -11.5 11.3 78 -14.5 5.8
01:55 1020 30.12 850 25.1 -11.4 11.6 80 -14.2 6.4
02:00 1020 30.12 850 25.1 -11.3 11.7 80 -14.1 6.6
02:05 1020 30.12 850 25.1 -11.3 11.7 80 -14.1 6.7
02:10 1020 30.12 849 25.07 -11.1 12.1 79 -14.1 6.6
02:15 1020 30.12 849 25.07 -11.1 12 77 -14.4 6.1
02:20 1020 30.12 849 25.07 -11.2 11.9 78 -14.3 6.3
02:25 1020 30.12 849 25.07 -11.3 11.7 77 -14.5 5.8
02:30 1020 30.12 849 25.07 -11.6 11.2 78 -14.6 5.7
02:35 1020 30.12 849 25.07 -11.9 10.6 80 -14.7 5.5
02:40 1020 30.12 849 25.07 -11.7 10.9 81 -14.3 6.2
02:45 1020 30.12 849 25.07 -11.3 11.7 79 -14.3 6.3
02:50 1020 30.12 849 25.07 -11.4 11.4 76 -14.8 5.3
02:55 1020 30.12 849 25.07 -11.2 11.8 74 -15.1 4.9
03:00 1020 30.12 849 25.07 -11 12.2 73 -14.9 5.2
03:05 1020 30.12 849 25.07 -11.2 11.8 76 -14.7 5.5
03:10 1020 30.12 849 25.07 -11.8 10.8 80 -14.6 5.7
03:15 1020 30.12 849 25.07 -12 10.4 80 -14.8 5.4
03:20 1020 30.12 849 25.07 -12 10.4 79 -15 5.1
03:25 1020 30.12 849 25.07 -11.8 10.7 79 -14.8 5.4
03:30 1020 30.12 849 25.07 -11.7 11 76 -15.1 4.8
03:35 1020 30.12 849 25.07 -11.6 11.2 76 -15 5
03:40 1020 30.12 849 25.07 -11.6 11.1 78 -14.8 5.4
03:45 1019 30.09 849 25.07 -11.7 10.9 80 -14.6 5.8
03:50 1019 30.09 849 25.07 -11.8 10.9 79 -14.7 5.6
03:55 1019 30.09 848 25.04 -11.6 11.2 77 -14.9 5.2
04:00 1019 30.09 848 25.04 -11.9 10.6 77 -15.1 4.9
04:05 1019 30.09 848 25.04 -12.4 9.6 78 -15.5 4.2
04:10 1019 30.09 848 25.04 -12.7 9.2 79 -15.6 4
04:15 1019 30.09 848 25.04 -12.7 9.2 81 -15.4 4.3
04:20 1019 30.09 848 25.04 -12.6 9.3 80 -15.4 4.2
04:25 1019 30.09 848 25.04 -12.6 9.4 81 -15.2 4.6
04:30 1019 30.09 848 25.04 -12.2 10 80 -15.1 4.9
04:35 1019 30.09 848 25.04 -12 10.4 78 -15.1 4.8
04:40 1019 30.09 848 25.04 -12.2 10 79 -15.1 4.7
04:45 1019 30.09 848 25.04 -12.4 9.7 79 -15.3 4.5
04:50 1019 30.09 848 25.04 -12.4 9.6 80 -15.2 4.6
04:55 1019 30.09 848 25.04 -12.2 10 79 -15.1 4.7
05:00 1019 30.09 848 25.04 -11.9 10.5 76 -15.4 4.4
05:05 1019 30.09 848 25.04 -11.6 11.2 74 -15.3 4.5
05:10 1019 30.09 848 25.04 -11.5 11.3 74 -15.2 4.6
05:15 1019 30.09 848 25.04 -11.4 11.5 75 -15 5
05:20 1019 30.09 848 25.04 -11.4 11.4 75 -15.1 4.9
05:25 1018 30.06 848 25.04 -11.5 11.2 77 -14.9 5.2
05:30 1018 30.06 848 25.04 -11.7 10.9 76 -15.2 4.7
05:35 1018 30.06 847 25.01 -11.8 10.8 76 -15.3 4.5
05:40 1018 30.06 847 25.01 -12 10.4 77 -15.2 4.6
05:45 1018 30.06 847 25.01 -12.1 10.2 78 -15.2 4.7
05:50 1018 30.06 847 25.01 -12.1 10.2 79 -15.1 4.8
05:55 1018 30.06 847 25.01 -12.3 10 79 -15.2 4.7
06:00 1018 30.06 847 25.01 -12.2 10.1 79 -15.1 4.9
06:05 1018 30.06 847 25.01 -12.1 10.3 78 -15.1 4.8
06:10 1018 30.06 847 25.01 -12 10.3 78 -15.1 4.9
06:15 1018 30.06 847 25.01 -12.1 10.1 79 -15.1 4.7
06:20 1018 30.06 847 25.01 -12.3 9.8 79 -15.2 4.6
06:25 1018 30.06 847 25.01 -12.3 9.9 79 -15.3 4.5
06:30 1018 30.06 847 25.01 -12.4 9.8 80 -15.1 4.7
06:35 1018 30.06 847 25.01 -12.1 10.2 78 -15.2 4.6
06:40 1018 30.06 847 25.01 -12.2 10.1 78 -15.3 4.5
06:45 1018 30.06 847 25.01 -12.3 9.9 79 -15.3 4.5
06:50 1018 30.06 847 25.01 -12.1 10.2 78 -15.1 4.7
06:55 1018 30.06 847 25.01 -11.7 10.9 76 -15.1 4.8
07:00 1018 30.06 847 25.01 -11.7 11 75 -15.3 4.4
07:05 1018 30.06 847 25.01 -11.6 11.2 75 -15.2 4.6
07:10 1018 30.06 847 25.01 -11.7 11 74 -15.4 4.3
07:15 1018 30.06 847 25.01 -11.5 11.3 74 -15.4 4.4
07:20 1018 30.06 847 25.01 -11.6 11.2 73 -15.4 4.2
07:25 1018 30.06 847 25.01 -12.1 10.3 76 -15.5 4.1
07:30 1018 30.06 847 25.01 -12.5 9.6 78 -15.5 4.1
07:35 1018 30.06 847 25.01 -12.5 9.4 79 -15.5 4.1
07:40 1018 30.06 847 25.01 -12.4 9.7 80 -15.1 4.7
07:45 1018 30.06 847 25.01 -11.6 11.1 75 -15.2 4.6
07:50 1018 30.06 847 25.01 -11.7 10.9 75 -15.3 4.5
07:55 1018 30.06 847 25.01 -11.5 11.3 74 -15.3 4.5
08:00 1018 30.06 847 25.01 -11 12.1 72 -15.2 4.6
08:05 1018 30.06 847 25.01 -10.6 12.9 70 -15.1 4.8
08:10 1018 30.06 847 25.01 -10.3 13.4 72 -14.5 5.8
08:15 1018 30.06 847 25.01 -10.2 13.7 72 -14.4 6.1
08:20 1018 30.06 847 25.01 -10 13.9 70 -14.5 5.8
08:25 1018 30.06 847 25.01 -9.8 14.4 69 -14.5 6
08:30 1018 30.06 847 25.01 -9.4 15 68 -14.3 6.2
08:35 1018 30.06 847 25.01 -9.2 15.5 67 -14.3 6.3
08:40 1018 30.06 847 25.01 -8.6 16.6 65 -14 6.7
08:45 1018 30.06 847 25.01 -8 17.6 63 -13.9 7
08:50 1018 30.06 847 25.01 -7.6 18.3 62 -13.8 7.2
08:55 1018 30.06 847 25.01 -7.3 18.8 60 -13.8 7.2
09:00 1018 30.06 847 25.01 -7.5 18.5 61 -13.7 7.3
09:05 1018 30.06 847 25.01 -7.8 18 62 -13.8 7.1
09:10 1018 30.06 847 25.01 -8.3 17.1 66 -13.5 7.6
09:15 1018 30.06 847 25.01 -7.9 17.8 64 -13.5 7.8
09:20 1018 30.06 847 25.01 -7.3 19 61 -13.5 7.7
09:25 1018 30.06 847 25.01 -6.9 19.6 61 -13.2 8.2
09:30 1018 30.06 847 25.01 -7.3 19 63 -13.2 8.2
09:35 1018 30.06 847 25.01 -7.5 18.6 61 -13.8 7.2
09:40 1018 30.06 847 25.01 -7.3 18.9 62 -13.4 7.8
09:45 1018 30.06 847 25.01 -7 19.5 62 -13.1 8.4
09:50 1018 30.06 847 25.01 -6.6 20.2 60 -13.2 8.3
09:55 1018 30.06 847 25.01 -6.8 19.8 62 -13 8.7
10:00 1018 30.06 847 25.01 -6.4 20.4 60 -13 8.7
10:05 1018 30.06 847 25.01 -6.6 20.1 62 -12.8 9
10:10 1018 30.06 847 25.01 -6.6 20.1 62 -12.8 9
10:15 1018 30.06 847 25.01 -6 21.2 61 -12.4 9.7
10:20 1018 30.06 847 25.01 -5.8 21.6 61 -12.2 10.1
10:25 1018 30.06 847 25.01 -5.8 21.6 61 -12.2 10
10:30 1018 30.06 847 25.01 -5.4 22.2 58 -12.4 9.7
10:35 1018 30.06 847 25.01 -5 22.9 58 -12.1 10.2
10:40 1018 30.06 847 25.01 -4.4 24.1 55 -12.2 10
10:45 1018 30.06 847 25.01 -4.1 24.7 54 -12 10.4
10:50 1018 30.06 847 25.01 -3.6 25.5 52 -12 10.3
10:55 1018 30.06 847 25.01 -3 26.5 51 -11.8 10.8
11:00 1018 30.06 847 25.01 -2.5 27.4 50 -11.5 11.3
11:05 1017 30.03 847 25.01 -2.4 27.7 50 -11.4 11.4
11:10 1017 30.03 847 25.01 -2.3 27.9 50 -11.3 11.6
11:15 1017 30.03 846 24.98 -2.3 27.8 51 -11.2 11.8
11:20 1017 30.03 846 24.98 -2 28.5 49 -11.4 11.6
11:25 1017 30.03 846 24.98 -1.8 28.7 51 -10.8 12.6
11:30 1017 30.03 846 24.98 -1.7 29 50 -10.7 12.8
11:35 1017 30.03 846 24.98 -1.6 29.1 51 -10.5 13.1
11:40 1017 30.03 846 24.98 -1.4 29.5 51 -10.4 13.4
11:45 1017 30.03 846 24.98 -1 30.3 48 -10.7 12.8
11:50 1017 30.03 846 24.98 -0.8 30.5 48 -10.6 12.9
11:55 1017 30.03 846 24.98 -0.5 31.1 44 -11.2 11.8
12:00 1017 30.03 846 24.98 0 32 42 -11.4 11.4
12:05 1017 30.03 846 24.98 0.1 32.2 41 -11.6 11
12:10 1017 30.03 846 24.98 -0.2 31.6 42 -11.7 10.9
12:15 1017 30.03 846 24.98 0.2 32.3 38 -12.4 9.7
12:20 1017 30.03 846 24.98 0.7 33.3 41 -11.1 12
12:25 1017 30.03 846 24.98 0.6 33.1 40 -11.4 11.5
12:30 1017 30.03 846 24.98 1.5 34.7 39 -11 12.2
12:35 1017 30.03 846 24.98 1.7 35 38 -11.1 12.1
12:40 1017 30.03 846 24.98 2.1 35.8 36 -11.4 11.6
12:45 1017 30.03 846 24.98 2.3 36.1 36 -11.2 11.9
12:50 1017 30.03 846 24.98 2.4 36.3 37 -10.8 12.6
12:55 1017 30.03 846 24.98 2.6 36.7 35 -11.4 11.5
13:00 1017 30.03 846 24.98 2.8 37 38 -10.3 13.4
13:05 1017 30.03 846 24.98 2.5 36.5 37 -10.9 12.4
13:10 1017 30.03 846 24.98 2.7 36.8 36 -11 12.2
13:15 1017 30.03 846 24.98 2.9 37.2 34 -11.6 11.1
13:20 1017 30.03 846 24.98 2.5 36.5 42 -9.2 15.5
13:25 1017 30.03 846 24.98 1.3 34.3 49 -8.2 17.2
13:30 1017 30.03 846 24.98 0.6 33.1 48 -9.1 15.6
13:35 1017 30.03 846 24.98 1 33.7 47 -9.1 15.6
13:40 1017 30.03 846 24.98 1.5 34.6 44 -9.5 14.8
13:45 1017 30.03 846 24.98 2 35.6 41 -9.8 14.3
13:50 1017 30.03 846 24.98 3.2 37.8 38 -9.7 14.6
13:55 1017 30.03 846 24.98 3.1 37.6 44 -8.1 17.4
14:00 1017 30.03 846 24.98 2.7 36.8 43 -8.5 16.6
14:05 1017 30.03 846 24.98 3 37.3 40 -9.5 14.9
14:10 1017 30.03 846 24.98 3.9 39 35 -10.1 13.8
14:15 1017 30.03 846 24.98 4.1 39.3 37 -9.2 15.4
14:20 1017 30.03 846 24.98 3.2 37.8 45 -7.6 18.2
14:25 1017 30.03 846 24.98 1.7 35 46 -8.7 16.3
14:30 1017 30.03 846 24.98 1.4 34.5 48 -8.4 16.9
14:35 1017 30.03 846 24.98 1.1 34 48 -8.9 16.1
14:40 1017 30.03 846 24.98 1 33.9 48 -8.9 16
14:45 1016 30 846 24.98 1.3 34.4 48 -8.4 16.9
14:50 1016 30 846 24.98 1.6 34.8 47 -8.5 16.7
14:55 1016 30 846 24.98 1.5 34.6 48 -8.4 17
15:00 1016 30 845 24.95 1.4 34.5 49 -8.2 17.2
15:05 1016 30 845 24.95 1.3 34.4 49 -8.3 17
15:10 1016 30 845 24.95 1.5 34.6 50 -7.9 17.9
15:15 1016 30 845 24.95 1.7 35 51 -7.5 18.5
15:20 1015 29.97 845 24.95 2.4 36.3 47 -7.9 17.8
15:25 1015 29.97 844 24.92 2.9 37.2 45 -7.9 17.8
15:30 1015 29.97 845 24.95 3.1 37.5 42 -8.6 16.5
15:35 1016 30 845 24.95 3.9 38.9 40 -8.6 16.5
15:40 1016 30 845 24.95 4.3 39.7 39 -8.5 16.7
15:45 1016 30 845 24.95 4.1 39.5 36 -9.5 14.9
15:50 1016 30 845 24.95 4.4 39.9 38 -8.7 16.3
15:55 1016 30 845 24.95 4.4 40 35 -9.7 14.5
16:00 1015 29.97 845 24.95 4.2 39.6 38 -8.7 16.4
16:05 1015 29.97 844 24.92 4.4 40 37 -9 15.7
16:10 1015 29.97 844 24.92 4.6 40.2 37 -8.8 16.2
16:15 1015 29.97 845 24.95 4.8 40.6 36 -8.9 16
16:20 1015 29.97 845 24.95 5.2 41.4 34 -9.3 15.2
16:25 1015 29.97 845 24.95 5.3 41.5 34 -9.5 15
16:30 1015 29.97 845 24.95 5.2 41.4 35 -8.9 15.9
16:35 1015 29.97 845 24.95 5.2 41.3 35 -9.2 15.5
16:40 1015 29.97 845 24.95 5.1 41.1 36 -8.9 16.1
16:45 1015 29.97 845 24.95 5.2 41.4 36 -8.6 16.5
16:50 1015 29.97 845 24.95 5.4 41.8 34 -9.3 15.3
16:55 1015 29.97 845 24.95 5.5 41.9 35 -8.8 16.2
17:00 1015 29.97 845 24.95 5.8 42.4 32 -9.6 14.7
17:05 1015 29.97 844 24.92 6.2 43.2 32 -9.4 15
17:10 1015 29.97 844 24.92 6.3 43.4 32 -9.3 15.2
17:15 1015 29.97 844 24.92 6.4 43.5 30 -9.8 14.4
17:20 1015 29.97 844 24.92 6.5 43.7 31 -9.6 14.8
17:25 1015 29.97 844 24.92 6.3 43.4 34 -8.3 17.1
17:30 1015 29.97 844 24.92 5.6 42 37 -8.1 17.5
17:35 1015 29.97 844 24.92 5.9 42.6 35 -8.6 16.5
17:40 1015 29.97 844 24.92 6.6 44 33 -8.5 16.7
17:45 1015 29.97 844 24.92 6.3 43.3 35 -8.2 17.3
17:50 1015 29.97 844 24.92 5.7 42.2 33 -9.2 15.4
17:55 1015 29.97 844 24.92 5.3 41.5 34 -9.3 15.2
18:00 1015 29.97 844 24.92 5.7 42.2 34 -8.9 15.9
18:05 1014 29.94 844 24.92 6 42.9 31 -9.9 14.1
18:10 1014 29.94 844 24.92 6.6 43.8 30 -9.9 14.2
18:15 1014 29.94 844 24.92 6.7 44.1 32 -8.7 16.3
18:20 1014 29.94 844 24.92 6.4 43.4 35 -8.1 17.4
18:25 1014 29.94 844 24.92 5.6 42.1 36 -8.4 17
18:30 1014 29.94 844 24.92 5.4 41.6 34 -9.1 15.6
18:35 1014 29.94 843 24.89 5.4 41.7 37 -8.2 17.2
18:40 1014 29.94 843 24.89 5.3 41.6 38 -7.7 18.1
18:45 1014 29.94 843 24.89 5.2 41.3 37 -8.3 17.1
18:50 1014 29.94 843 24.89 5.1 41.1 37 -8.5 16.7
18:55 1014 29.94 843 24.89 5.1 41.1 38 -8.1 17.4
19:00 1014 29.94 843 24.89 5 40.9 40 -7.6 18.3
19:05 1014 29.94 843 24.89 4.8 40.6 41 -7.4 18.7
19:10 1014 29.94 843 24.89 4.7 40.4 40 -7.9 17.8
19:15 1014 29.94 843 24.89 4.6 40.3 40 -7.8 17.9
19:20 1014 29.94 843 24.89 4.6 40.2 40 -7.9 17.9
19:25 1014 29.94 843 24.89 4.5 40 43 -7 19.3
19:30 1014 29.94 843 24.89 4.2 39.6 42 -7.5 18.5
19:35 1014 29.94 843 24.89 4.2 39.6 42 -7.5 18.5
19:40 1014 29.94 844 24.92 4.2 39.6 41 -8 17.6
19:45 1014 29.94 844 24.92 4.3 39.8 42 -7.6 18.3
19:50 1014 29.94 844 24.92 4.1 39.4 43 -7.3 18.8
19:55 1014 29.94 844 24.92 4 39.3 43 -7.4 18.7
20:00 1014 29.94 844 24.92 4.1 39.4 41 -7.9 17.9
20:05 1015 29.97 844 24.92 4.2 39.6 41 -8 17.6
20:10 1015 29.97 844 24.92 4.3 39.7 42 -7.4 18.6
20:15 1015 29.97 844 24.92 4.1 39.3 43 -7.4 18.7
20:20 1015 29.97 844 24.92 3.9 39 44 -7.2 19
20:25 1015 29.97 844 24.92 3.8 38.8 45 -7 19.4
20:30 1015 29.97 844 24.92 3.6 38.5 45 -7.1 19.2
20:35 1015 29.97 844 24.92 3.8 38.9 44 -7.3 18.9
20:40 1015 29.97 844 24.92 3.9 39 45 -6.9 19.7
20:45 1015 29.97 844 24.92 3.7 38.7 45 -7.2 19
20:50 1015 29.97 844 24.92 3.8 38.8 45 -7.2 19.1
20:55 1015 29.97 844 24.92 3.7 38.7 45 -7 19.4
21:00 1015 29.97 844 24.92 3.6 38.5 48 -6.5 20.3
21:05 1015 29.97 844 24.92 3.5 38.3 47 -6.8 19.8
21:10 1015 29.97 844 24.92 3.4 38.2 47 -6.8 19.7
21:15 1015 29.97 844 24.92 3.4 38.2 48 -6.6 20.1
21:20 1015 29.97 844 24.92 3.3 38 49 -6.5 20.3
21:25 1015 29.97 844 24.92 3.2 37.8 48 -6.7 19.9
21:30 1015 29.97 844 24.92 3.3 37.9 46 -7.2 19.1
21:35 1015 29.97 845 24.95 3.5 38.3 48 -6.6 20.2
21:40 1015 29.97 845 24.95 3.5 38.3 47 -6.7 19.9
21:45 1016 30 845 24.95 3.7 38.7 44 -7.4 18.7
21:50 1016 30 845 24.95 3.9 39.1 45 -6.9 19.6
21:55 1016 30 845 24.95 3.8 38.9 45 -7 19.3
22:00 1016 30 845 24.95 3.7 38.7 46 -6.8 19.7
22:05 1016 30 845 24.95 3.5 38.4 47 -6.7 20
22:10 1016 30 845 24.95 3.4 38.2 48 -6.5 20.3
22:15 1016 30 845 24.95 3.4 38.2 46 -7 19.4
22:20 1016 30 845 24.95 3.4 38.2 48 -6.5 20.3
22:25 1016 30 845 24.95 3.2 37.8 49 -6.5 20.2
22:30 1016 30 845 24.95 3 37.5 48 -7 19.5
22:35 1016 30 845 24.95 3.1 37.5 47 -7.1 19.2
22:40 1016 30 845 24.95 3.1 37.5 49 -6.7 19.9
22:45 1016 30 845 24.95 2.9 37.2 48 -7.2 19.1
22:50 1016 30 845 24.95 2.9 37.2 47 -7.3 18.9
22:55 1016 30 845 24.95 2.9 37.2 47 -7.4 18.8
23:00 1016 30 845 24.95 2.8 37.1 47 -7.3 18.8
23:05 1016 30 845 24.95 2.7 36.9 48 -7.3 18.8
23:10 1016 30 845 24.95 2.6 36.7 49 -7.1 19.2
23:15 1016 30 845 24.95 2.5 36.5 49 -7.1 19.1
23:20 1016 30 845 24.95 2.5 36.5 49 -7.1 19.2
23:25 1016 30 845 24.95 2.4 36.4 50 -6.9 19.5
23:30 1016 30 845 24.95 2.3 36.1 50 -7 19.3
23:35 1016 30 845 24.95 2.1 35.8 51 -7.1 19.2
23:40 1016 30 845 24.95 2.1 35.8 51 -6.9 19.5
23:45 1016 30 845 24.95 2 35.5 52 -6.9 19.5
23:50 1016 30 845 24.95 1.8 35.2 52 -7 19.4
23:55 1016 30 845 24.95 1.7 35.1 52 -7.1 19.3
24:00 1016 30 845 24.95 1.7 35.1 52 -7.1 19.3